Seaexpressii — HO4619 — position and weather

sailwx.info

Track history (hours):
 
Tides and Currents Weather Stations Pressure Air Temp Water Temp Dewpoint Dewpoint Depression Visibility Wind Speed Wind Dir Waves Ship Positions

Seaexpressii

Last reported at 2017-Dec-09 09:39 UTC. Time now 2017-Dec-12 23:43 UTC.
Position N 25°48' W 079°31'.

Length 37 m; draft 2.1 m.

Type: Cargo ship. MMSI: 356449000.

Date/timePositionNaut miles runAvg speedWind from/ knotsBaromVisibWave heightAir tempDewpointWater temp
2017-Dec-09 09:39N 25°48' W 079°31'1 6.2
2017-Dec-09 09:27N 25°49' W 079°32'3 6.2
2017-Dec-09 09:00N 25°50' W 079°35'3 6.4
2017-Dec-09 08:30N 25°52' W 079°38'3 6.6
2017-Dec-09 08:00N 25°54' W 079°41'3 6.4
2017-Dec-09 07:30N 25°56' W 079°44'3 6.0
2017-Dec-09 07:00N 25°57' W 079°47'3 6.3
2017-Dec-09 06:30N 25°59' W 079°50'3 6.4
2017-Dec-09 06:00N 26°00' W 079°53'3 6.8
2017-Dec-09 05:30N 26°02' W 079°56'5 9.8
2017-Dec-09 05:00N 26°04' W 080°01'510.1
2017-Dec-09 04:30N 26°06' W 080°06'2 4.8
2017-Dec-09 04:00N 26°04' W 080°08'0 0.1
2017-Dec-09 03:30N 26°04' W 080°08'0 0.0
2017-Dec-09 03:00N 26°04' W 080°08'0 0.0
2017-Dec-09 02:30N 26°04' W 080°08'0 0.0
2017-Dec-09 02:00N 26°04' W 080°08'0 0.0
2017-Dec-09 01:30N 26°04' W 080°08'0 0.0
2017-Dec-09 01:01N 26°04' W 080°08'0 0.0
2017-Dec-09 00:30N 26°04' W 080°08'0 0.0
2017-Dec-09 00:00N 26°04' W 080°08'0 0.0
2017-Dec-08 23:30N 26°04' W 080°08'0 0.0
2017-Dec-08 23:00N 26°04' W 080°08'2 3.8
2017-Dec-08 22:30N 26°05' W 080°07'2 3.8
2017-Dec-08 22:01N 26°05' W 080°05'510.4
2017-Dec-08 21:30N 26°05' W 079°59'510.3
2017-Dec-08 21:00N 26°05' W 079°53'5 9.5
2017-Dec-08 20:31N 26°05' W 079°48'510.0
2017-Dec-08 20:00N 26°05' W 079°42'510.0
2017-Dec-08 19:28N 26°05' W 079°37'13 1.1
2017-Dec-08 08:14N 26°15' W 079°28'310.7
2017-Dec-08 07:57N 26°15' W 079°31'510.7
2017-Dec-08 07:30N 26°13' W 079°37'510.6
2017-Dec-08 07:00N 26°12' W 079°42'511.0
2017-Dec-08 06:30N 26°10' W 079°48'611.6
2017-Dec-08 06:00N 26°08' W 079°54'510.8
2017-Dec-08 05:30N 26°06' W 079°60'5 9.7
2017-Dec-08 05:00N 26°05' W 080°05'3 5.8
2017-Dec-08 04:30N 26°04' W 080°08'0 0.5
2017-Dec-08 04:00N 26°04' W 080°08'0 0.0
2017-Dec-08 03:30N 26°04' W 080°08'0 0.1
2017-Dec-08 03:00N 26°04' W 080°08'0 0.0
2017-Dec-08 02:30N 26°04' W 080°08'0 0.0
2017-Dec-08 02:00N 26°04' W 080°08'0 0.0
2017-Dec-08 01:30N 26°04' W 080°08'0 0.0
2017-Dec-08 01:00N 26°04' W 080°08'0 0.0
2017-Dec-08 00:30N 26°04' W 080°08'0 0.0
2017-Dec-08 00:00N 26°04' W 080°08'0 0.0
2017-Dec-07 23:30N 26°04' W 080°08'0 0.0
2017-Dec-07 23:00N 26°04' W 080°08'0 0.0
2017-Dec-07 22:30N 26°04' W 080°08'0 0.0
2017-Dec-07 22:00N 26°04' W 080°08'0 0.0
2017-Dec-07 21:30N 26°04' W 080°08'0 0.0
2017-Dec-07 21:00N 26°04' W 080°08'0 0.0
2017-Dec-07 20:30N 26°04' W 080°08'0 0.0
2017-Dec-07 20:00N 26°04' W 080°08'0 0.0
2017-Dec-07 19:30N 26°04' W 080°08'0 0.0
2017-Dec-07 19:00N 26°04' W 080°08'0 0.0
2017-Dec-07 18:30N 26°04' W 080°08'0 0.0
2017-Dec-07 18:01N 26°04' W 080°08'0 0.0
2017-Dec-07 17:30N 26°04' W 080°08'0 0.0
2017-Dec-07 17:00N 26°04' W 080°08'1 1.4
2017-Dec-07 16:30N 26°04' W 080°07'3 5.2
2017-Dec-07 16:00N 26°05' W 080°04'5 9.7
2017-Dec-07 15:30N 26°04' W 079°59'511.0
2017-Dec-07 15:00N 26°02' W 079°53'611.2
2017-Dec-07 14:30N 26°01' W 079°47'611.3
2017-Dec-07 14:00N 25°59' W 079°41'  
2017-Dec-02 05:20N 25°59' W 079°45'3 8.9
2017-Dec-02 04:59N 25°60' W 079°48'4 9.0
2017-Dec-02 04:30N 26°01' W 079°53'4 8.9
2017-Dec-02 04:00N 26°02' W 079°58'5 9.4
2017-Dec-02 03:30N 26°04' W 080°03'4 7.9
2017-Dec-02 03:00N 26°05' W 080°07'2 3.5
2017-Dec-02 02:30N 26°04' W 080°08'0 0.0
2017-Dec-02 02:00N 26°04' W 080°08'0 0.0
2017-Dec-02 01:30N 26°04' W 080°08'0 0.0
2017-Dec-02 01:00N 26°04' W 080°08'0 0.0
2017-Dec-02 00:30N 26°04' W 080°08'0 0.0
2017-Dec-02 00:00N 26°04' W 080°08'0 0.0
2017-Dec-01 23:30N 26°04' W 080°08'0 0.0
2017-Dec-01 23:00N 26°04' W 080°08'0 0.0
2017-Dec-01 22:31N 26°04' W 080°08'0 0.0
2017-Dec-01 22:00N 26°04' W 080°08'0 0.0
2017-Dec-01 21:31N 26°04' W 080°08'0 0.0
2017-Dec-01 21:00N 26°04' W 080°08'0 0.0
2017-Dec-01 20:30N 26°04' W 080°08'0 0.0
2017-Dec-01 20:00N 26°04' W 080°08'0 0.1
2017-Dec-01 19:30N 26°04' W 080°08'2 4.4
2017-Dec-01 19:00N 26°06' W 080°07'4 7.3
2017-Dec-01 18:30N 26°04' W 080°03'4 8.7
2017-Dec-01 18:00N 26°03' W 079°58'4 8.8
2017-Dec-01 17:30N 26°01' W 079°54'4 8.8
2017-Dec-01 17:00N 25°60' W 079°49'5 8.7
2017-Dec-01 16:27N 25°58' W 079°44'  
Track history (hours):
 
Tides and Currents Weather Stations Pressure Air Temp Water Temp Dewpoint Dewpoint Depression Visibility Wind Speed Wind Dir Waves Ship Positions

Seaexpressii

Last reported at 2017-Dec-09 09:39 UTC. Time now 2017-Dec-12 23:43 UTC.
Position N 25°48' W 079°31'.

Length 37 m; draft 2.1 m.

Type: Cargo ship. MMSI: 356449000.

Date/timePositionNaut miles runAvg speedWind from/ knotsBaromVisibWave heightAir tempDewpointWater temp
2017-Dec-09 09:39N 25°48' W 079°31'1 6.2
2017-Dec-09 09:27N 25°49' W 079°32'3 6.2
2017-Dec-09 09:00N 25°50' W 079°35'3 6.4
2017-Dec-09 08:30N 25°52' W 079°38'3 6.6
2017-Dec-09 08:00N 25°54' W 079°41'3 6.4
2017-Dec-09 07:30N 25°56' W 079°44'3 6.0
2017-Dec-09 07:00N 25°57' W 079°47'3 6.3
2017-Dec-09 06:30N 25°59' W 079°50'3 6.4
2017-Dec-09 06:00N 26°00' W 079°53'3 6.8
2017-Dec-09 05:30N 26°02' W 079°56'5 9.8
2017-Dec-09 05:00N 26°04' W 080°01'510.1
2017-Dec-09 04:30N 26°06' W 080°06'2 4.8
2017-Dec-09 04:00N 26°04' W 080°08'0 0.1
2017-Dec-09 03:30N 26°04' W 080°08'0 0.0
2017-Dec-09 03:00N 26°04' W 080°08'0 0.0
2017-Dec-09 02:30N 26°04' W 080°08'0 0.0
2017-Dec-09 02:00N 26°04' W 080°08'0 0.0
2017-Dec-09 01:30N 26°04' W 080°08'0 0.0
2017-Dec-09 01:01N 26°04' W 080°08'0 0.0
2017-Dec-09 00:30N 26°04' W 080°08'0 0.0
2017-Dec-09 00:00N 26°04' W 080°08'0 0.0
2017-Dec-08 23:30N 26°04' W 080°08'0 0.0
2017-Dec-08 23:00N 26°04' W 080°08'2 3.8
2017-Dec-08 22:30N 26°05' W 080°07'2 3.8
2017-Dec-08 22:01N 26°05' W 080°05'510.4
2017-Dec-08 21:30N 26°05' W 079°59'510.3
2017-Dec-08 21:00N 26°05' W 079°53'5 9.5
2017-Dec-08 20:31N 26°05' W 079°48'510.0
2017-Dec-08 20:00N 26°05' W 079°42'510.0
2017-Dec-08 19:28N 26°05' W 079°37'13 1.1
2017-Dec-08 08:14N 26°15' W 079°28'310.7
2017-Dec-08 07:57N 26°15' W 079°31'510.7
2017-Dec-08 07:30N 26°13' W 079°37'510.6
2017-Dec-08 07:00N 26°12' W 079°42'511.0
2017-Dec-08 06:30N 26°10' W 079°48'611.6
2017-Dec-08 06:00N 26°08' W 079°54'510.8
2017-Dec-08 05:30N 26°06' W 079°60'5 9.7
2017-Dec-08 05:00N 26°05' W 080°05'3 5.8
2017-Dec-08 04:30N 26°04' W 080°08'0 0.5
2017-Dec-08 04:00N 26°04' W 080°08'0 0.0
2017-Dec-08 03:30N 26°04' W 080°08'0 0.1
2017-Dec-08 03:00N 26°04' W 080°08'0 0.0
2017-Dec-08 02:30N 26°04' W 080°08'0 0.0
2017-Dec-08 02:00N 26°04' W 080°08'0 0.0
2017-Dec-08 01:30N 26°04' W 080°08'0 0.0
2017-Dec-08 01:00N 26°04' W 080°08'0 0.0
2017-Dec-08 00:30N 26°04' W 080°08'0 0.0
2017-Dec-08 00:00N 26°04' W 080°08'0 0.0
2017-Dec-07 23:30N 26°04' W 080°08'0 0.0
2017-Dec-07 23:00N 26°04' W 080°08'0 0.0
2017-Dec-07 22:30N 26°04' W 080°08'0 0.0
2017-Dec-07 22:00N 26°04' W 080°08'0 0.0
2017-Dec-07 21:30N 26°04' W 080°08'0 0.0
2017-Dec-07 21:00N 26°04' W 080°08'0 0.0
2017-Dec-07 20:30N 26°04' W 080°08'0 0.0
2017-Dec-07 20:00N 26°04' W 080°08'0 0.0
2017-Dec-07 19:30N 26°04' W 080°08'0 0.0
2017-Dec-07 19:00N 26°04' W 080°08'0 0.0
2017-Dec-07 18:30N 26°04' W 080°08'0 0.0
2017-Dec-07 18:01N 26°04' W 080°08'0 0.0
2017-Dec-07 17:30N 26°04' W 080°08'0 0.0
2017-Dec-07 17:00N 26°04' W 080°08'1 1.4
2017-Dec-07 16:30N 26°04' W 080°07'3 5.2
2017-Dec-07 16:00N 26°05' W 080°04'5 9.7
2017-Dec-07 15:30N 26°04' W 079°59'511.0
2017-Dec-07 15:00N 26°02' W 079°53'611.2
2017-Dec-07 14:30N 26°01' W 079°47'611.3
2017-Dec-07 14:00N 25°59' W 079°41'  
2017-Dec-02 05:20N 25°59' W 079°45'3 8.9
2017-Dec-02 04:59N 25°60' W 079°48'4 9.0
2017-Dec-02 04:30N 26°01' W 079°53'4 8.9
2017-Dec-02 04:00N 26°02' W 079°58'5 9.4
2017-Dec-02 03:30N 26°04' W 080°03'4 7.9
2017-Dec-02 03:00N 26°05' W 080°07'2 3.5
2017-Dec-02 02:30N 26°04' W 080°08'0 0.0
2017-Dec-02 02:00N 26°04' W 080°08'0 0.0
2017-Dec-02 01:30N 26°04' W 080°08'0 0.0
2017-Dec-02 01:00N 26°04' W 080°08'0 0.0
2017-Dec-02 00:30N 26°04' W 080°08'0 0.0
2017-Dec-02 00:00N 26°04' W 080°08'0 0.0
2017-Dec-01 23:30N 26°04' W 080°08'0 0.0
2017-Dec-01 23:00N 26°04' W 080°08'0 0.0
2017-Dec-01 22:31N 26°04' W 080°08'0 0.0
2017-Dec-01 22:00N 26°04' W 080°08'0 0.0
2017-Dec-01 21:31N 26°04' W 080°08'0 0.0
2017-Dec-01 21:00N 26°04' W 080°08'0 0.0
2017-Dec-01 20:30N 26°04' W 080°08'0 0.0
2017-Dec-01 20:00N 26°04' W 080°08'0 0.1
2017-Dec-01 19:30N 26°04' W 080°08'2 4.4
2017-Dec-01 19:00N 26°06' W 080°07'4 7.3
2017-Dec-01 18:30N 26°04' W 080°03'4 8.7
2017-Dec-01 18:00N 26°03' W 079°58'4 8.8
2017-Dec-01 17:30N 26°01' W 079°54'4 8.8
2017-Dec-01 17:00N 25°60' W 079°49'5 8.7
2017-Dec-01 16:27N 25°58' W 079°44'  

Dump ship's entire track history